Weather at ADNOC Buhasa Heliport

Public forecast

Using degrees Celsius for public forecast. Weather courtesy of forecast.io.

Closest aviation weather report (METAR) to ADNOC Buhasa Heliport

Closest report is Al Bateen Executive Airport, 82.9 nm (153.6 km) NE.

2023/03/26 01:00 (retrieved 1 hour ago)

OMAD 260100Z 11003KT CAVOK 20/17 Q1010 N0SIG

Closest aviation forecast (TAF) to ADNOC Buhasa Heliport

Forecast is more than 6 hours old.

Closest forecast is Hamad International Airport, 138.6 nm (256.6 km) NW.

2023/03/25 18:00 (retrieved 8 hours ago)

TAF OTHH 251701Z 2518/2624 13010KT CAVOK TEMPO 2612/2624 07012KT PROB40 TEMPO 2614/2624 01018KT 7000 -RA FEW050 BKN120 PROB30 TEMPO 2620/2624 5000 SHRA FEW050CB